Time;durP1;ratioP1;P1;durP2;ratioP2;P2;SDS_P1;SDS_P2;PMS_P1;PMS_P2;Temp;Humidity;BMP_temperature;BMP_pressure;BME280_temperature;BME280_humidity;BME280_pressure;Samples;Min_cycle;Max_cycle;Signal;HPM_P1;HPM_P2
2021/06/28 00:00:31;;;;;;;9.23;6.40;;;;;;;19.61;76.69;101321.00;5061155;28;20049;-51
2021/06/28 00:02:59;;;;;;;9.57;6.72;;;;;;;19.58;76.92;101314.16;5076594;28;20040;-49
2021/06/28 00:05:27;;;;;;;10.60;6.68;;;;;;;19.57;76.94;101312.50;5056611;28;20048;-48
2021/06/28 00:07:55;;;;;;;13.65;7.03;;;;;;;19.49;76.80;101305.00;5073791;28;20500;-48
2021/06/28 00:10:27;;;;;;;8.32;6.18;;;;;;;19.46;77.21;101305.63;5073938;28;20064;-48
2021/06/28 00:13:03;;;;;;;8.90;6.65;;;;;;;19.46;77.38;101311.16;5089634;28;20040;-49
2021/06/28 00:15:37;;;;;;;10.43;6.57;;;;;;;19.48;77.21;101313.59;5089938;28;20040;-48
2021/06/28 00:18:10;;;;;;;10.15;7.05;;;;;;;19.49;77.30;101306.94;5082400;28;20040;-47
2021/06/28 00:20:38;;;;;;;9.63;6.78;;;;;;;19.45;77.34;101304.00;5084920;28;20048;-50
2021/06/28 00:23:05;;;;;;;10.18;6.82;;;;;;;19.45;77.08;101295.69;5075650;28;20048;-46
2021/06/28 00:25:34;;;;;;;9.38;6.85;;;;;;;19.44;77.18;101294.09;5073422;28;20044;-49
2021/06/28 00:28:03;;;;;;;11.40;6.93;;;;;;;19.39;77.26;101291.44;5075175;28;20060;-51
2021/06/28 00:30:33;;;;;;;10.20;7.13;;;;;;;19.36;77.45;101295.66;5085097;28;20090;-49
2021/06/28 00:33:00;;;;;;;9.95;6.25;;;;;;;19.37;77.24;101289.00;5073715;28;20613;-48
2021/06/28 00:35:28;;;;;;;9.82;6.10;;;;;;;19.40;77.24;101295.03;5072827;28;20048;-49
2021/06/28 00:37:56;;;;;;;11.68;6.45;;;;;;;19.40;76.76;101279.25;5073649;28;20041;-48
2021/06/28 00:40:24;;;;;;;9.45;6.60;;;;;;;19.37;76.90;101291.75;5055093;28;20075;-48
2021/06/28 00:42:52;;;;;;;8.57;6.00;;;;;;;19.37;77.09;101286.22;5073477;28;20041;-48
2021/06/28 00:45:31;;;;;;;11.13;6.47;;;;;;;19.39;76.62;101276.81;5076665;28;20498;-51
2021/06/28 00:48:02;;;;;;;11.35;6.65;;;;;;;19.33;76.46;101268.66;5081347;28;20105;-48
2021/06/28 00:50:32;;;;;;;8.80;6.03;;;;;;;19.29;76.81;101270.44;5072764;28;20037;-49
2021/06/28 00:53:03;;;;;;;9.35;5.68;;;;;;;19.31;76.93;101259.03;5072906;28;20048;-50
2021/06/28 00:55:31;;;;;;;10.15;5.90;;;;;;;19.34;76.59;101261.19;5072665;28;20456;-50
2021/06/28 00:58:00;;;;;;;10.63;6.13;;;;;;;19.37;76.56;101263.31;5073288;28;20044;-50
2021/06/28 01:00:27;;;;;;;8.15;5.82;;;;;;;19.38;76.38;101264.94;5072492;28;20040;-49
2021/06/28 01:02:56;;;;;;;10.25;6.18;;;;;;;19.30;76.29;101271.25;5072904;28;20055;-49
2021/06/28 01:05:26;;;;;;;9.30;6.10;;;;;;;19.23;76.83;101270.88;5072288;28;20041;-49
2021/06/28 01:07:54;;;;;;;9.73;6.65;;;;;;;19.21;76.93;101265.66;5072754;28;20188;-50
2021/06/28 01:10:22;;;;;;;10.68;6.03;;;;;;;19.18;76.89;101258.00;5086946;28;20105;-51
2021/06/28 01:12:50;;;;;;;9.50;6.32;;;;;;;19.20;77.16;101261.28;5073023;28;20045;-49
2021/06/28 01:15:19;;;;;;;10.48;6.10;;;;;;;19.23;76.51;101257.06;5072305;28;20048;-49
2021/06/28 01:17:48;;;;;;;9.57;6.30;;;;;;;19.19;76.48;101256.03;5072768;28;20391;-49
2021/06/28 01:20:21;;;;;;;8.55;6.30;;;;;;;19.16;76.70;101263.03;5082774;28;20448;-50
2021/06/28 01:22:55;;;;;;;9.73;6.47;;;;;;;19.13;76.67;101252.63;5074784;28;20086;-50
2021/06/28 01:25:25;;;;;;;7.40;5.60;;;;;;;19.11;76.98;101250.16;5072690;28;20089;-48
2021/06/28 01:27:53;;;;;;;8.85;6.07;;;;;;;19.10;77.24;101259.59;5072335;28;20094;-48
2021/06/28 01:30:25;;;;;;;9.00;6.13;;;;;;;19.12;76.97;101262.84;5072536;28;20032;-49
2021/06/28 01:32:54;;;;;;;10.70;6.50;;;;;;;19.12;76.91;101268.38;5071938;28;20054;-47
2021/06/28 01:35:22;;;;;;;10.27;6.38;;;;;;;19.13;76.86;101258.94;5071907;28;20052;-48
2021/06/28 01:37:50;;;;;;;9.93;6.40;;;;;;;19.10;76.67;101264.31;5072141;28;20449;-49
2021/06/28 01:40:18;;;;;;;9.75;6.97;;;;;;;19.03;76.76;101261.97;5072144;28;20561;-50
2021/06/28 01:42:47;;;;;;;8.88;6.70;;;;;;;18.99;76.90;101272.00;5072289;28;20071;-48
2021/06/28 01:45:20;;;;;;;11.57;6.75;;;;;;;19.01;77.17;101278.03;5072128;28;20044;-49
2021/06/28 01:47:50;;;;;;;9.93;5.68;;;;;;;19.09;76.94;101280.03;5071467;28;20064;-49
2021/06/28 01:50:19;;;;;;;8.70;6.18;;;;;;;19.16;76.84;101283.16;5071954;28;20071;-50
2021/06/28 01:52:47;;;;;;;9.00;6.53;;;;;;;19.20;76.40;101279.78;5072006;28;20068;-52
2021/06/28 01:55:17;;;;;;;9.95;5.97;;;;;;;19.19;76.33;101278.16;5085996;28;20402;-47
2021/06/28 01:57:48;;;;;;;11.13;7.15;;;;;;;19.21;76.32;101278.66;5072034;28;20502;-48
2021/06/28 02:00:19;;;;;;;10.00;6.05;;;;;;;19.22;76.42;101278.34;5071950;28;20045;-47
2021/06/28 02:03:17;;;;;;;11.50;6.97;;;;;;;19.26;76.20;101279.31;5071825;28;20075;-49
2021/06/28 02:05:47;;;;;;;10.20;6.75;;;;;;;19.27;75.96;101280.16;4977746;28;20479;-50
2021/06/28 02:08:16;;;;;;;11.35;7.78;;;;;;;19.21;75.75;101275.88;4990606;28;20127;-49
2021/06/28 02:10:50;;;;;;;10.13;6.97;;;;;;;19.08;75.86;101272.88;4990219;28;20189;-49
2021/06/28 02:13:25;;;;;;;10.85;6.22;;;;;;;19.04;76.16;101277.41;4990399;28;20042;-49
2021/06/28 02:15:54;;;;;;;10.15;7.60;;;;;;;19.03;76.43;101273.03;4990262;28;20539;-49
2021/06/28 02:18:23;;;;;;;11.07;7.22;;;;;;;19.00;76.49;101270.91;4990272;28;20046;-52
2021/06/28 02:20:55;;;;;;;13.68;7.15;;;;;;;18.96;76.65;101271.84;4990197;28;20061;-50
2021/06/28 02:23:35;;;;;;;12.50;7.10;;;;;;;18.93;76.67;101276.84;4990324;28;20043;-47
2021/06/28 02:26:04;;;;;;;9.32;6.53;;;;;;;18.92;76.88;101269.69;4990208;28;20105;-51
2021/06/28 02:28:38;;;;;;;11.77;7.93;;;;;;;18.92;76.60;101269.69;4990341;28;20046;-49
2021/06/28 02:31:07;;;;;;;9.02;6.93;;;;;;;18.88;76.82;101278.91;4989998;28;20489;-52
2021/06/28 02:33:36;;;;;;;9.07;6.90;;;;;;;18.88;76.87;101281.66;4990160;28;20050;-50
2021/06/28 02:36:04;;;;;;;11.98;7.05;;;;;;;18.87;76.86;101278.09;4989952;28;20512;-49
2021/06/28 02:38:34;;;;;;;12.18;7.40;;;;;;;18.90;77.01;101274.69;4990471;28;20082;-50
2021/06/28 02:41:03;;;;;;;11.43;7.10;;;;;;;18.95;76.81;101293.09;4992885;28;20610;-49
2021/06/28 02:43:53;;;;;;;10.40;6.90;;;;;;;18.99;76.61;101282.25;5009705;28;20452;-46
2021/06/28 02:46:22;;;;;;;10.35;6.95;;;;;;;19.01;76.45;101280.00;5009037;28;20066;-46
2021/06/28 02:48:50;;;;;;;10.23;6.75;;;;;;;19.02;76.45;101293.47;5009515;28;20053;-49
2021/06/28 02:51:18;;;;;;;13.38;7.18;;;;;;;19.03;76.49;101284.06;5009639;28;20076;-47
2021/06/28 02:53:47;;;;;;;9.85;7.20;;;;;;;19.03;76.19;101284.06;5009708;28;20050;-46
2021/06/28 02:56:15;;;;;;;9.63;7.38;;;;;;;18.99;76.14;101285.81;5008860;28;20116;-49
2021/06/28 02:58:59;;;;;;;11.93;7.68;;;;;;;18.90;76.08;101290.44;5009555;28;20080;-48
2021/06/28 03:01:39;;;;;;;10.52;8.15;;;;;;;18.80;76.16;101287.94;5068851;28;20453;-49
2021/06/28 03:04:17;;;;;;;9.90;7.45;;;;;;;18.73;76.83;101297.44;5102330;27;1222276;-47
2021/06/28 03:06:56;;;;;;;11.43;7.90;;;;;;;18.72;77.20;101298.56;5069476;28;20465;-49
2021/06/28 03:09:36;;;;;;;9.82;7.20;;;;;;;18.76;77.09;101300.69;5069437;28;20727;-49
2021/06/28 03:12:16;;;;;;;11.52;7.88;;;;;;;18.77;76.75;101299.63;5069383;28;20453;-47
2021/06/28 03:14:56;;;;;;;12.10;8.27;;;;;;;18.70;76.82;101289.78;5069216;28;20387;-49
2021/06/28 03:17:36;;;;;;;11.48;8.40;;;;;;;18.62;76.99;101293.28;5069678;28;20833;-50
2021/06/28 03:20:17;;;;;;;13.88;8.25;;;;;;;18.53;77.28;101281.34;5069509;28;20383;-48
2021/06/28 03:22:56;;;;;;;12.77;8.38;;;;;;;18.45;77.40;101265.53;5106646;27;1228050;-48
2021/06/28 03:25:35;;;;;;;10.30;8.00;;;;;;;18.37;77.82;101269.00;5069392;28;20386;-49
2021/06/28 03:28:14;;;;;;;12.23;7.72;;;;;;;18.36;78.00;101278.44;5102545;27;1300504;-47
2021/06/28 03:30:52;;;;;;;12.10;7.85;;;;;;;18.34;78.08;101266.88;5100915;27;1235628;-49
2021/06/28 03:33:32;;;;;;;11.13;8.05;;;;;;;18.35;78.24;101276.78;5069633;28;20394;-48
2021/06/28 03:36:14;;;;;;;19.50;8.57;;;;;;;18.39;78.18;101277.81;5069366;28;20387;-48
2021/06/28 03:38:54;;;;;;;10.30;7.80;;;;;;;18.41;77.84;101281.06;5100978;27;1226575;-47
2021/06/28 03:41:34;;;;;;;10.70;8.52;;;;;;;18.39;77.71;101277.81;5109804;27;20388;-50
2021/06/28 03:44:27;;;;;;;12.20;8.32;;;;;;;18.38;77.75;101281.69;5130191;27;20390;-49
2021/06/28 03:47:07;;;;;;;11.43;8.00;;;;;;;18.35;77.79;101283.13;5069681;28;20472;-48
2021/06/28 03:49:45;;;;;;;14.27;7.78;;;;;;;18.33;77.77;101281.78;5095762;27;1216261;-49
2021/06/28 03:52:24;;;;;;;11.90;7.93;;;;;;;18.31;78.00;101282.91;5102211;27;1224839;-50
2021/06/28 03:55:05;;;;;;;11.98;7.75;;;;;;;18.27;78.14;101272.81;5069393;28;20382;-51
2021/06/28 03:57:45;;;;;;;11.93;7.80;;;;;;;18.21;77.99;101261.09;5069230;28;20473;-45
2021/06/28 04:00:25;;;;;;;10.90;7.57;;;;;;;18.18;78.45;101264.44;5069107;28;20403;-49
2021/06/28 04:03:06;;;;;;;9.52;7.07;;;;;;;18.24;78.50;101273.44;5097969;27;1229110;-48
2021/06/28 04:05:44;;;;;;;10.15;8.02;;;;;;;18.32;78.15;101278.22;5112480;27;1229786;-50
2021/06/28 04:08:22;;;;;;;10.02;7.28;;;;;;;18.39;77.85;101289.66;5096136;27;1225160;-51
2021/06/28 04:11:03;;;;;;;10.60;7.65;;;;;;;18.46;77.66;101281.75;5069510;28;20448;-48
2021/06/28 04:13:42;;;;;;;11.35;8.25;;;;;;;18.50;77.54;101277.28;5068994;28;20476;-49
2021/06/28 04:16:22;;;;;;;11.90;8.45;;;;;;;18.46;77.33;101273.50;5089812;27;20382;-48
2021/06/28 04:19:02;;;;;;;11.60;8.30;;;;;;;18.35;77.53;101272.09;5065344;28;20379;-49
2021/06/28 04:21:42;;;;;;;11.68;8.50;;;;;;;18.27;77.98;101270.06;5069515;28;20726;-51
2021/06/28 04:24:21;;;;;;;12.20;8.60;;;;;;;18.27;78.27;101267.28;5069447;28;20386;-50
2021/06/28 04:27:00;;;;;;;10.90;8.05;;;;;;;18.31;78.38;101266.38;5100138;27;1248115;-48
2021/06/28 04:29:39;;;;;;;11.02;7.85;;;;;;;18.34;78.13;101264.13;5092313;27;1237988;-48
2021/06/28 04:32:18;;;;;;;18.05;9.05;;;;;;;18.35;78.29;101265.75;5111509;27;1240411;-50
2021/06/28 04:34:58;;;;;;;13.18;8.38;;;;;;;18.35;78.27;101271.25;5069502;28;20998;-47
2021/06/28 04:37:40;;;;;;;10.00;7.40;;;;;;;18.34;78.59;101267.69;5069554;28;20477;-50
2021/06/28 04:40:22;;;;;;;11.88;7.65;;;;;;;18.41;78.59;101275.56;5069496;28;20391;-47
2021/06/28 04:43:00;;;;;;;11.30;7.60;;;;;;;18.47;78.20;101271.53;5094387;27;1237563;-48
2021/06/28 04:45:41;;;;;;;11.13;8.68;;;;;;;18.54;77.82;101277.44;5069597;28;20449;-49
2021/06/28 04:48:20;;;;;;;11.15;8.60;;;;;;;18.57;78.03;101274.09;5092802;27;1229462;-49
2021/06/28 04:50:59;;;;;;;12.45;9.15;;;;;;;18.57;78.10;101273.25;5069602;28;20986;-50
2021/06/28 04:53:40;;;;;;;10.52;8.30;;;;;;;18.58;78.28;101280.41;5069421;28;20490;-48
2021/06/28 04:56:20;;;;;;;10.88;8.20;;;;;;;18.61;78.17;101280.59;5129131;27;20378;-51
2021/06/28 04:59:01;;;;;;;13.05;8.90;;;;;;;18.65;78.23;101284.38;5050013;28;20486;-51
2021/06/28 05:01:42;;;;;;;12.00;9.23;;;;;;;18.69;78.29;101288.16;5057738;28;20395;-51
2021/06/28 05:04:20;;;;;;;11.00;8.35;;;;;;;18.69;78.58;101288.16;5108543;27;1236003;-50
2021/06/28 05:07:00;;;;;;;11.45;8.55;;;;;;;18.71;78.24;101274.88;5056545;28;20480;-49
2021/06/28 05:09:39;;;;;;;12.75;9.18;;;;;;;18.67;78.23;101273.84;5060533;28;20388;-51
2021/06/28 05:12:19;;;;;;;12.20;9.00;;;;;;;18.66;78.26;101266.69;5054346;28;20470;-50
2021/06/28 05:14:59;;;;;;;11.60;9.27;;;;;;;18.68;78.25;101269.94;5058595;28;20384;-50
2021/06/28 05:17:38;;;;;;;13.52;9.30;;;;;;;18.70;78.08;101262.16;5104503;27;1234152;-48
2021/06/28 05:20:19;;;;;;;12.75;9.07;;;;;;;18.69;78.59;101260.56;5067645;28;20391;-49
2021/06/28 05:22:57;;;;;;;18.73;10.18;;;;;;;18.67;78.60;101257.28;5110091;27;1239377;-50
2021/06/28 05:25:37;;;;;;;12.45;8.18;;;;;;;18.69;78.72;101255.03;5068813;28;20551;-51
2021/06/28 05:28:17;;;;;;;15.57;10.20;;;;;;;18.73;78.80;101261.53;5069366;28;20450;-51
2021/06/28 05:30:57;;;;;;;13.73;9.07;;;;;;;18.80;78.46;101255.63;5069340;28;20484;-50
2021/06/28 05:33:36;;;;;;;14.80;9.43;;;;;;;18.87;78.34;101256.00;5069926;28;20391;-50
2021/06/28 05:36:16;;;;;;;11.30;8.15;;;;;;;18.92;78.04;101255.06;5069624;28;20453;-54
2021/06/28 05:38:56;;;;;;;16.45;10.77;;;;;;;18.98;78.14;101262.09;5069549;28;20391;-52
2021/06/28 05:41:36;;;;;;;22.88;10.90;;;;;;;19.00;77.91;101262.59;5069228;28;20391;-54
2021/06/28 05:44:14;;;;;;;16.23;12.45;;;;;;;19.04;77.58;101260.03;5098585;27;1241629;-53
2021/06/28 05:46:54;;;;;;;13.25;10.63;;;;;;;19.08;77.71;101259.06;5069687;28;20456;-50
2021/06/28 05:49:35;;;;;;;14.30;10.10;;;;;;;19.10;77.54;101254.06;5097458;27;1227087;-53
2021/06/28 05:52:19;;;;;;;15.80;10.90;;;;;;;19.11;77.99;101247.38;5069762;28;20387;-54
2021/06/28 05:54:58;;;;;;;17.23;12.90;;;;;;;19.11;78.70;101244.63;5093124;27;1240027;-52
2021/06/28 05:57:36;;;;;;;18.08;11.65;;;;;;;19.10;78.68;101243.00;5100576;27;1233555;-52
2021/06/28 06:00:15;;;;;;;20.60;14.70;;;;;;;19.11;78.90;101247.38;5092346;27;1233248;-50
2021/06/28 06:02:54;;;;;;;13.98;10.30;;;;;;;19.14;78.60;101240.41;5069450;28;20450;-49
2021/06/28 06:05:34;;;;;;;19.02;13.15;;;;;;;19.16;78.79;101236.22;5089418;28;20397;-49
2021/06/28 06:08:14;;;;;;;14.68;11.30;;;;;;;19.16;78.95;101238.97;5069321;28;20824;-51
2021/06/28 06:10:57;;;;;;;14.93;10.18;;;;;;;19.19;78.86;101245.00;5103022;27;1240857;-49
2021/06/28 06:13:37;;;;;;;17.00;13.48;;;;;;;19.23;78.99;101251.53;5069291;28;20757;-51
2021/06/28 06:16:16;;;;;;;21.58;13.65;;;;;;;19.24;79.42;101254.00;5069409;28;20390;-51
2021/06/28 06:18:56;;;;;;;17.55;12.88;;;;;;;19.28;79.49;101251.41;5069299;28;20386;-50
2021/06/28 06:21:36;;;;;;;17.83;13.27;;;;;;;19.28;79.85;101243.09;5069450;28;20391;-51
2021/06/28 06:24:16;;;;;;;20.63;14.55;;;;;;;19.28;79.47;101243.09;5109432;27;20373;-49
2021/06/28 06:26:58;;;;;;;18.52;13.65;;;;;;;19.31;80.13;101248.00;5114095;27;1221914;-51
2021/06/28 06:29:37;;;;;;;20.40;15.65;;;;;;;19.33;79.76;101234.69;5069156;28;20989;-52
2021/06/28 06:32:17;;;;;;;17.17;12.02;;;;;;;19.37;79.49;101243.97;5069506;28;20387;-50
2021/06/28 06:34:55;;;;;;;17.23;12.73;;;;;;;19.40;79.23;101235.03;5105361;27;1231618;-51
2021/06/28 06:37:35;;;;;;;17.55;12.23;;;;;;;19.42;79.36;101235.53;5069080;28;20394;-51
2021/06/28 06:40:15;;;;;;;17.38;12.40;;;;;;;19.45;78.93;101231.31;5069224;28;20390;-51
2021/06/28 06:42:56;;;;;;;20.02;15.77;;;;;;;19.46;79.43;101232.94;5069377;28;20386;-50
2021/06/28 06:45:39;;;;;;;19.40;14.20;;;;;;;19.42;79.29;101221.72;5069555;28;20391;-51
2021/06/28 06:48:19;;;;;;;17.05;14.35;;;;;;;19.40;79.31;101215.69;5069170;28;20445;-51
2021/06/28 06:50:59;;;;;;;19.42;14.57;;;;;;;19.43;79.36;101211.47;5069416;28;20888;-51
2021/06/28 06:53:39;;;;;;;17.00;13.35;;;;;;;19.50;79.57;101212.66;5068960;28;20390;-51
2021/06/28 06:56:18;;;;;;;21.55;15.05;;;;;;;19.53;79.53;101223.09;5069393;28;20390;-53
2021/06/28 06:58:58;;;;;;;17.73;13.25;;;;;;;19.55;79.13;101237.41;5069595;28;21010;-49
2021/06/28 07:01:40;;;;;;;14.38;11.63;;;;;;;19.59;78.67;101243.91;5069205;28;20440;-53
2021/06/28 07:04:21;;;;;;;18.38;14.07;;;;;;;19.66;78.90;101245.41;5109976;27;20771;-51
2021/06/28 07:07:01;;;;;;;17.10;13.65;;;;;;;19.72;78.99;101246.91;5068795;28;20798;-50
2021/06/28 07:09:41;;;;;;;18.85;15.23;;;;;;;19.75;79.12;101249.88;5069536;28;20391;-51
2021/06/28 07:12:19;;;;;;;17.63;13.18;;;;;;;19.76;79.21;101254.25;5110652;27;1237598;-51
2021/06/28 07:14:59;;;;;;;15.95;11.65;;;;;;;19.79;78.67;101255.56;5069484;28;20476;-51
2021/06/28 07:17:37;;;;;;;15.52;12.23;;;;;;;19.83;79.06;101253.78;5103820;27;1245561;-48
2021/06/28 07:20:21;;;;;;;18.70;14.02;;;;;;;19.87;78.76;101254.78;5109960;27;20916;-48
2021/06/28 07:23:01;;;;;;;23.65;16.48;;;;;;;19.92;79.40;101257.41;5069016;28;20391;-51
2021/06/28 07:25:41;;;;;;;24.27;16.00;;;;;;;19.92;78.87;101257.41;5069147;28;20392;-49
2021/06/28 07:28:21;;;;;;;20.42;15.73;;;;;;;19.92;78.32;101262.94;5069403;28;20448;-49
2021/06/28 07:31:00;;;;;;;14.88;11.63;;;;;;;19.95;78.34;101275.31;5095989;27;1222231;-50
2021/06/28 07:33:41;;;;;;;16.35;13.43;;;;;;;19.98;78.43;101278.22;5101998;27;1231110;-50
2021/06/28 07:36:20;;;;;;;19.23;15.82;;;;;;;20.03;78.49;101276.47;5009105;28;20394;-51
2021/06/28 07:39:02;;;;;;;19.80;16.08;;;;;;;20.07;78.70;101281.03;5069530;28;20742;-50
2021/06/28 07:41:40;;;;;;;16.50;13.38;;;;;;;20.11;78.46;101286.75;5106370;27;1219230;-50
2021/06/28 07:44:22;;;;;;;18.77;13.95;;;;;;;20.15;78.33;101288.53;5069371;28;20394;-48
2021/06/28 07:47:03;;;;;;;25.30;17.77;;;;;;;20.20;78.45;101284.81;5069439;28;20391;-51
2021/06/28 07:49:43;;;;;;;21.80;17.83;;;;;;;20.23;77.80;101278.66;5069013;28;20999;-49
2021/06/28 07:52:22;;;;;;;23.92;17.13;;;;;;;20.23;78.10;101270.34;5069238;28;20386;-49
2021/06/28 07:55:07;;;;;;;21.80;17.98;;;;;;;20.28;77.98;101277.69;5069038;28;20418;-50
2021/06/28 07:57:47;;;;;;;22.73;19.05;;;;;;;20.32;78.25;101270.34;5069359;28;20445;-49
2021/06/28 08:00:27;;;;;;;23.02;17.75;;;;;;;20.36;78.33;101266.59;5069205;28;20472;-50
2021/06/28 08:03:06;;;;;;;22.38;15.68;;;;;;;20.42;78.61;101261.75;5097898;27;1226463;-50
2021/06/28 08:05:46;;;;;;;22.27;18.92;;;;;;;20.52;78.24;101263.38;5109541;27;20388;-49
2021/06/28 08:08:25;;;;;;;21.00;17.98;;;;;;;20.55;77.66;101258.03;5095860;27;1224332;-50
2021/06/28 08:11:04;;;;;;;22.30;18.13;;;;;;;20.56;77.18;101253.28;5102071;27;1234027;-50
2021/06/28 08:13:45;;;;;;;20.40;15.77;;;;;;;20.55;77.02;101252.50;5094086;27;1222330;-51
2021/06/28 08:16:25;;;;;;;20.88;16.95;;;;;;;20.58;77.12;101253.78;5099736;27;1239651;-50
2021/06/28 08:19:06;;;;;;;23.85;18.70;;;;;;;20.62;76.94;101247.28;5069106;28;20390;-50
2021/06/28 08:21:48;;;;;;;22.73;17.98;;;;;;;20.66;75.90;101247.47;5069555;28;20982;-49
2021/06/28 08:24:28;;;;;;;24.80;17.27;;;;;;;20.66;75.90;101246.63;5069290;28;20379;-50
2021/06/28 08:27:07;;;;;;;22.70;17.77;;;;;;;20.65;76.07;101240.28;5098209;27;1269741;-51
2021/06/28 08:29:46;;;;;;;22.27;18.38;;;;;;;20.66;76.61;101244.69;5069352;28;20452;-50
2021/06/28 08:32:26;;;;;;;23.90;18.83;;;;;;;20.71;77.12;101238.97;5069518;28;20480;-50
2021/06/28 08:35:05;;;;;;;23.65;19.83;;;;;;;20.75;76.62;101239.94;5104206;27;1223350;-50
2021/06/28 08:37:44;;;;;;;22.85;19.48;;;;;;;20.78;75.86;101244.00;5096088;27;1232588;-50
2021/06/28 08:40:22;;;;;;;23.88;18.98;;;;;;;20.82;75.92;101237.50;5111106;27;1229322;-47
2021/06/28 08:43:01;;;;;;;22.35;18.42;;;;;;;20.88;76.16;101243.69;5094489;27;1233971;-49
2021/06/28 08:45:41;;;;;;;27.02;18.80;;;;;;;20.93;75.68;101242.72;5101158;27;1228971;-49
2021/06/28 08:48:20;;;;;;;20.67;14.75;;;;;;;21.01;75.22;101247.41;5118208;27;1254718;-50
2021/06/28 08:51:00;;;;;;;20.08;17.63;;;;;;;21.07;75.06;101248.88;5069364;28;20999;-49
2021/06/28 08:53:40;;;;;;;21.98;17.80;;;;;;;21.07;74.83;101246.13;5069209;28;20454;-51
2021/06/28 08:56:21;;;;;;;19.95;17.00;;;;;;;21.07;75.44;101243.34;5069190;28;20453;-51
2021/06/28 08:59:03;;;;;;;23.58;19.58;;;;;;;21.11;76.18;101246.25;5069359;28;20387;-51
2021/06/28 09:01:44;;;;;;;25.02;20.95;;;;;;;21.17;75.63;101245.75;5069079;28;20480;-49
2021/06/28 09:04:26;;;;;;;24.92;18.00;;;;;;;21.19;75.61;101254.56;5069207;28;20484;-50
2021/06/28 09:07:20;;;;;;;22.83;20.08;;;;;;;21.21;74.73;101256.97;5069352;28;20449;-51
2021/06/28 09:10:01;;;;;;;19.25;16.73;;;;;;;21.21;74.57;101257.81;5089466;27;20831;-51
2021/06/28 09:12:50;;;;;;;23.50;18.60;;;;;;;21.19;75.37;101256.50;5069395;28;20444;-51
2021/06/28 09:15:40;;;;;;;21.65;18.00;;;;;;;21.19;75.38;101264.81;5069308;28;20840;-51
2021/06/28 09:18:26;;;;;;;27.08;20.35;;;;;;;21.21;75.53;101263.38;5098562;27;1213967;-50
2021/06/28 09:21:07;;;;;;;22.58;17.85;;;;;;;21.23;75.40;101263.81;5133535;27;1232723;-50
2021/06/28 09:23:47;;;;;;;27.20;20.58;;;;;;;21.25;75.42;101267.09;5069507;28;20387;-50
2021/06/28 09:26:33;;;;;;;24.67;19.48;;;;;;;21.24;75.57;101265.47;5056670;28;20390;-51
2021/06/28 09:29:12;;;;;;;28.15;20.02;;;;;;;21.23;75.36;101271.31;5071932;27;1941824;-50
2021/06/28 09:31:51;;;;;;;23.67;18.00;;;;;;;21.23;75.43;101265.78;5069035;28;20449;-50
2021/06/28 09:34:33;;;;;;;21.95;17.20;;;;;;;21.21;75.16;101268.06;5069269;28;20917;-49
2021/06/28 09:37:17;;;;;;;18.58;15.05;;;;;;;21.20;74.94;101272.00;5101949;27;1240063;-52
2021/06/28 09:40:00;;;;;;;22.38;18.35;;;;;;;21.21;75.54;101273.59;5069267;28;20142;-49
2021/06/28 09:42:41;;;;;;;23.73;17.95;;;;;;;21.20;76.05;101275.56;5069518;28;20382;-49
2021/06/28 09:45:21;;;;;;;19.77;15.77;;;;;;;21.21;76.24;101274.44;5109873;27;20464;-51
2021/06/28 09:48:00;;;;;;;20.80;16.52;;;;;;;21.21;76.14;101280.00;5096797;27;1234083;-50
2021/06/28 09:50:48;;;;;;;21.40;16.95;;;;;;;21.21;75.45;101271.69;5049342;28;20461;-50
2021/06/28 09:54:11;;;;;;;24.98;17.25;;;;;;;21.20;75.38;101283.88;5193013;27;20394;-50
2021/06/28 09:57:08;;;;;;;23.90;20.23;;;;;;;21.23;75.81;101280.44;5148542;27;20417;-51
2021/06/28 10:00:02;;;;;;;21.27;15.55;;;;;;;21.23;75.59;101287.97;5089627;27;20411;-50
2021/06/28 10:02:57;;;;;;;22.65;19.23;;;;;;;21.21;75.78;101285.53;5089932;27;20396;-50
2021/06/28 10:06:10;;;;;;;24.10;18.27;;;;;;;21.19;75.23;101285.03;5192981;27;20520;-52
2021/06/28 10:09:26;;;;;;;19.95;13.88;;;;;;;21.17;74.46;101298.41;5148982;27;20443;-50
2021/06/28 10:12:20;;;;;;;22.33;17.70;;;;;;;21.16;74.90;101294.00;4195333;27;26998852;-50
2021/06/28 10:15:19;;;;;;;22.13;18.50;;;;;;;21.16;75.40;101294.00;5192223;27;20474;-51
2021/06/28 10:18:17;;;;;;;24.58;19.17;;;;;;;21.16;75.90;101293.19;5192971;27;20431;-51
2021/06/28 10:20:56;;;;;;;23.70;16.48;;;;;;;21.15;75.91;101297.13;4080564;27;30223172;-49
2021/06/28 10:23:37;;;;;;;22.73;17.07;;;;;;;21.14;75.58;101293.53;4198213;27;27055709;-50
2021/06/28 10:26:42;;;;;;;22.90;17.80;;;;;;;21.14;76.05;101296.31;5131856;27;20833;-50
2021/06/28 10:29:45;;;;;;;24.05;19.52;;;;;;;21.15;76.03;101300.69;5131336;27;20426;-50
2021/06/28 10:32:30;;;;;;;22.37;18.33;;;;;;;21.15;75.86;101303.47;4368234;27;20838377;-49
2021/06/28 10:35:12;;;;;;;23.90;17.30;;;;;;;21.15;75.53;101309.00;4629291;27;15048903;-51
2021/06/28 10:38:11;;;;;;;24.25;19.00;;;;;;;21.15;75.63;101303.47;5091664;27;20399;-53
2021/06/28 10:41:08;;;;;;;25.15;17.67;;;;;;;21.15;75.38;101297.91;5192894;27;20534;-49
2021/06/28 10:44:13;;;;;;;23.60;16.60;;;;;;;21.15;74.69;101297.91;5090305;27;20402;-51
2021/06/28 10:46:56;;;;;;;21.77;19.27;;;;;;;21.15;75.39;101297.91;4948751;27;5873745;-51
2021/06/28 10:49:44;;;;;;;23.17;19.83;;;;;;;21.17;75.63;101294.84;5057590;27;2196903;-51
2021/06/28 10:52:38;;;;;;;22.92;19.20;;;;;;;21.17;75.31;101295.63;5061771;28;20786;-48
2021/06/28 10:55:27;;;;;;;26.15;21.10;;;;;;;21.17;75.36;101290.09;5048897;28;20115;-48
2021/06/28 10:58:30;;;;;;;28.27;22.52;;;;;;;21.18;75.31;101286.16;5049108;28;20052;-48
2021/06/28 11:01:17;;;;;;;28.98;22.58;;;;;;;21.19;75.48;101286.97;5061780;28;20052;-50
2021/06/28 11:04:11;;;;;;;25.63;22.52;;;;;;;21.19;75.52;101281.44;5040972;28;20044;-49
2021/06/28 11:07:00;;;;;;;30.05;23.00;;;;;;;21.20;76.43;101281.13;4349989;28;10000634;-49
2021/06/28 11:09:53;;;;;;;28.92;22.48;;;;;;;21.20;76.67;101281.13;5046680;28;20047;-54
2021/06/28 11:12:39;;;;;;;26.77;21.60;;;;;;;21.19;76.70;101282.28;5040453;28;20574;-54
2021/06/28 11:15:26;;;;;;;26.92;21.80;;;;;;;21.18;76.81;101280.63;5046250;28;20057;-50
2021/06/28 11:18:29;;;;;;;25.38;21.13;;;;;;;21.17;77.26;101280.97;5045812;28;20522;-49
2021/06/28 11:21:39;;;;;;;25.77;22.20;;;;;;;21.14;77.02;101274.13;5045190;28;20184;-50
2021/06/28 11:24:10;;;;;;;24.33;21.50;;;;;;;21.14;77.09;101282.44;5046686;28;20052;-48
2021/06/28 11:27:30;;;;;;;25.15;21.17;;;;;;;21.14;76.95;101276.06;5087755;27;20403;-48
2021/06/28 11:30:30;;;;;;;23.77;19.88;;;;;;;21.13;76.99;101274.44;5125181;27;21197;-50
2021/06/28 11:33:13;;;;;;;25.17;20.17;;;;;;;21.14;77.39;101263.06;4631944;27;15049410;-51
2021/06/28 11:35:52;;;;;;;25.45;20.33;;;;;;;21.14;77.55;101265.81;5128013;27;20039;-52
2021/06/28 11:38:43;;;;;;;27.65;21.02;;;;;;;21.15;77.59;101263.84;5128737;27;20039;-51
2021/06/28 11:41:24;;;;;;;25.90;18.63;;;;;;;21.15;77.25;101261.91;5066630;28;20738;-51
2021/06/28 11:44:25;;;;;;;27.80;21.73;;;;;;;21.18;77.53;101271.50;5087936;27;20414;-53
2021/06/28 11:47:04;;;;;;;28.13;23.67;;;;;;;21.18;77.81;101264.00;4631525;27;15050966;-49
2021/06/28 11:49:42;;;;;;;30.90;24.73;;;;;;;21.20;78.05;101260.91;3934580;27;33057538;-51
2021/06/28 11:53:04;;;;;;;33.75;24.23;;;;;;;21.20;77.48;101266.44;5146030;27;20560;-49
2021/06/28 11:55:47;;;;;;;29.13;24.13;;;;;;;21.21;77.49;101257.81;4497638;27;18648237;-48
2021/06/28 11:58:26;;;;;;;32.17;25.47;;;;;;;21.24;77.85;101251.59;4532500;27;17943221;-47
2021/06/28 12:01:06;;;;;;;32.03;26.10;;;;;;;21.26;77.38;101248.50;4614213;27;15048184;-50
2021/06/28 12:03:44;;;;;;;32.60;26.00;;;;;;;21.28;77.41;101252.56;4092098;27;30128467;-50
2021/06/28 12:06:27;;;;;;;28.30;24.20;;;;;;;21.30;77.89;101252.22;4618634;27;15058381;-51